sensor_id;sensor_type;location;lat;lon;timestamp;P1;durP1;ratioP1;P2;durP2;ratioP2
30301;SDS011;17111;52.130;5.028;2023-12-29T00:01:22;15.23;;;6.30;;
30301;SDS011;17111;52.130;5.028;2023-12-29T00:03:49;13.45;;;7.57;;
30301;SDS011;17111;52.130;5.028;2023-12-29T00:06:15;14.77;;;6.85;;
30301;SDS011;17111;52.130;5.028;2023-12-29T00:08:42;14.25;;;6.57;;
30301;SDS011;17111;52.130;5.028;2023-12-29T00:11:15;13.25;;;6.30;;
30301;SDS011;17111;52.130;5.028;2023-12-29T00:13:48;14.43;;;6.00;;
30301;SDS011;17111;52.130;5.028;2023-12-29T00:16:15;12.20;;;5.90;;
30301;SDS011;17111;52.130;5.028;2023-12-29T00:18:42;12.90;;;6.60;;
30301;SDS011;17111;52.130;5.028;2023-12-29T00:21:09;11.75;;;6.53;;
30301;SDS011;17111;52.130;5.028;2023-12-29T00:23:36;12.70;;;6.75;;
30301;SDS011;17111;52.130;5.028;2023-12-29T00:26:02;10.25;;;6.10;;
30301;SDS011;17111;52.130;5.028;2023-12-29T00:28:29;13.60;;;6.15;;
30301;SDS011;17111;52.130;5.028;2023-12-29T00:30:56;13.98;;;6.30;;
30301;SDS011;17111;52.130;5.028;2023-12-29T00:33:28;10.73;;;5.15;;
30301;SDS011;17111;52.130;5.028;2023-12-29T00:35:55;10.45;;;5.85;;
30301;SDS011;17111;52.130;5.028;2023-12-29T00:38:22;11.18;;;5.75;;
30301;SDS011;17111;52.130;5.028;2023-12-29T00:40:49;12.25;;;5.40;;
30301;SDS011;17111;52.130;5.028;2023-12-29T00:43:15;11.82;;;6.57;;
30301;SDS011;17111;52.130;5.028;2023-12-29T00:45:44;12.95;;;6.68;;
30301;SDS011;17111;52.130;5.028;2023-12-29T00:48:10;10.07;;;5.57;;
30301;SDS011;17111;52.130;5.028;2023-12-29T00:50:37;12.38;;;5.75;;
30301;SDS011;17111;52.130;5.028;2023-12-29T00:53:04;9.43;;;5.55;;
30301;SDS011;17111;52.130;5.028;2023-12-29T00:55:30;12.88;;;5.72;;
30301;SDS011;17111;52.130;5.028;2023-12-29T00:57:57;12.25;;;5.57;;
30301;SDS011;17111;52.130;5.028;2023-12-29T01:00:24;9.93;;;5.30;;
30301;SDS011;17111;52.130;5.028;2023-12-29T01:02:51;10.85;;;5.32;;
30301;SDS011;17111;52.130;5.028;2023-12-29T01:05:17;11.48;;;5.47;;
30301;SDS011;17111;52.130;5.028;2023-12-29T01:07:44;8.63;;;5.00;;
30301;SDS011;17111;52.130;5.028;2023-12-29T01:10:11;8.40;;;4.45;;
30301;SDS011;17111;52.130;5.028;2023-12-29T01:12:38;10.57;;;4.82;;
30301;SDS011;17111;52.130;5.028;2023-12-29T01:15:05;8.60;;;4.68;;
30301;SDS011;17111;52.130;5.028;2023-12-29T01:17:32;12.07;;;5.65;;
30301;SDS011;17111;52.130;5.028;2023-12-29T01:19:58;13.57;;;5.32;;
30301;SDS011;17111;52.130;5.028;2023-12-29T01:22:25;9.90;;;4.65;;
30301;SDS011;17111;52.130;5.028;2023-12-29T01:24:52;9.48;;;4.78;;
30301;SDS011;17111;52.130;5.028;2023-12-29T01:27:18;9.60;;;4.95;;
30301;SDS011;17111;52.130;5.028;2023-12-29T01:29:45;9.02;;;4.80;;
30301;SDS011;17111;52.130;5.028;2023-12-29T01:32:12;9.77;;;4.65;;
30301;SDS011;17111;52.130;5.028;2023-12-29T01:34:38;10.13;;;5.03;;
30301;SDS011;17111;52.130;5.028;2023-12-29T01:37:05;9.93;;;5.05;;
30301;SDS011;17111;52.130;5.028;2023-12-29T01:39:33;11.07;;;4.70;;
30301;SDS011;17111;52.130;5.028;2023-12-29T01:42:00;9.32;;;4.32;;
30301;SDS011;17111;52.130;5.028;2023-12-29T01:44:27;9.27;;;4.40;;
30301;SDS011;17111;52.130;5.028;2023-12-29T01:46:55;10.18;;;4.15;;
30301;SDS011;17111;52.130;5.028;2023-12-29T01:49:25;11.10;;;4.72;;
30301;SDS011;17111;52.130;5.028;2023-12-29T01:51:55;11.50;;;4.38;;
30301;SDS011;17111;52.130;5.028;2023-12-29T01:54:27;10.38;;;4.65;;
30301;SDS011;17111;52.130;5.028;2023-12-29T01:56:59;8.38;;;4.50;;
30301;SDS011;17111;52.130;5.028;2023-12-29T01:59:27;10.52;;;4.65;;
30301;SDS011;17111;52.130;5.028;2023-12-29T02:01:54;8.40;;;3.95;;
30301;SDS011;17111;52.130;5.028;2023-12-29T02:04:23;8.48;;;4.18;;
30301;SDS011;17111;52.130;5.028;2023-12-29T02:06:51;9.45;;;3.58;;
30301;SDS011;17111;52.130;5.028;2023-12-29T02:09:18;10.25;;;3.95;;
30301;SDS011;17111;52.130;5.028;2023-12-29T02:11:45;11.25;;;4.30;;
30301;SDS011;17111;52.130;5.028;2023-12-29T02:14:13;8.32;;;3.90;;
30301;SDS011;17111;52.130;5.028;2023-12-29T02:19:20;11.18;;;4.38;;
30301;SDS011;17111;52.130;5.028;2023-12-29T02:21:49;8.88;;;3.45;;
30301;SDS011;17111;52.130;5.028;2023-12-29T02:24:15;7.72;;;3.55;;
30301;SDS011;17111;52.130;5.028;2023-12-29T02:26:43;8.35;;;3.10;;
30301;SDS011;17111;52.130;5.028;2023-12-29T02:29:13;9.02;;;3.92;;
30301;SDS011;17111;52.130;5.028;2023-12-29T02:31:44;10.50;;;4.15;;
30301;SDS011;17111;52.130;5.028;2023-12-29T02:34:17;7.55;;;3.90;;
30301;SDS011;17111;52.130;5.028;2023-12-29T02:36:46;7.80;;;3.92;;
30301;SDS011;17111;52.130;5.028;2023-12-29T02:39:13;9.52;;;3.53;;
30301;SDS011;17111;52.130;5.028;2023-12-29T02:41:40;12.13;;;4.10;;
30301;SDS011;17111;52.130;5.028;2023-12-29T02:44:07;10.52;;;3.78;;
30301;SDS011;17111;52.130;5.028;2023-12-29T02:46:33;8.90;;;3.47;;
30301;SDS011;17111;52.130;5.028;2023-12-29T02:49:00;10.65;;;3.13;;
30301;SDS011;17111;52.130;5.028;2023-12-29T02:51:27;6.00;;;3.35;;
30301;SDS011;17111;52.130;5.028;2023-12-29T02:53:53;8.93;;;3.80;;
30301;SDS011;17111;52.130;5.028;2023-12-29T02:56:20;5.88;;;2.88;;
30301;SDS011;17111;52.130;5.028;2023-12-29T02:58:48;7.00;;;3.20;;
30301;SDS011;17111;52.130;5.028;2023-12-29T03:01:14;7.72;;;3.42;;
30301;SDS011;17111;52.130;5.028;2023-12-29T03:03:41;7.40;;;3.05;;
30301;SDS011;17111;52.130;5.028;2023-12-29T03:06:08;8.63;;;3.60;;
30301;SDS011;17111;52.130;5.028;2023-12-29T03:08:35;7.50;;;3.03;;
30301;SDS011;17111;52.130;5.028;2023-12-29T03:11:01;8.73;;;3.50;;
30301;SDS011;17111;52.130;5.028;2023-12-29T03:13:28;6.47;;;3.38;;
30301;SDS011;17111;52.130;5.028;2023-12-29T03:15:55;10.02;;;3.85;;
30301;SDS011;17111;52.130;5.028;2023-12-29T03:18:21;5.25;;;2.90;;
30301;SDS011;17111;52.130;5.028;2023-12-29T03:20:48;7.38;;;3.20;;
30301;SDS011;17111;52.130;5.028;2023-12-29T03:23:14;6.05;;;3.35;;
30301;SDS011;17111;52.130;5.028;2023-12-29T03:25:41;5.80;;;3.20;;
30301;SDS011;17111;52.130;5.028;2023-12-29T03:28:08;8.27;;;3.45;;
30301;SDS011;17111;52.130;5.028;2023-12-29T03:30:35;9.00;;;3.67;;
30301;SDS011;17111;52.130;5.028;2023-12-29T03:33:02;5.93;;;3.15;;
30301;SDS011;17111;52.130;5.028;2023-12-29T03:35:32;7.95;;;3.13;;
30301;SDS011;17111;52.130;5.028;2023-12-29T03:37:58;7.47;;;3.00;;
30301;SDS011;17111;52.130;5.028;2023-12-29T03:40:26;7.55;;;3.88;;
30301;SDS011;17111;52.130;5.028;2023-12-29T03:42:52;6.10;;;3.00;;
30301;SDS011;17111;52.130;5.028;2023-12-29T03:45:19;7.70;;;3.33;;
30301;SDS011;17111;52.130;5.028;2023-12-29T03:47:45;8.20;;;3.70;;
30301;SDS011;17111;52.130;5.028;2023-12-29T03:50:12;7.95;;;3.13;;
30301;SDS011;17111;52.130;5.028;2023-12-29T03:52:39;10.15;;;2.72;;
30301;SDS011;17111;52.130;5.028;2023-12-29T03:55:05;7.22;;;3.22;;
30301;SDS011;17111;52.130;5.028;2023-12-29T03:57:32;9.02;;;3.55;;
30301;SDS011;17111;52.130;5.028;2023-12-29T03:59:59;7.72;;;2.90;;
30301;SDS011;17111;52.130;5.028;2023-12-29T04:02:25;7.60;;;3.30;;
30301;SDS011;17111;52.130;5.028;2023-12-29T04:04:52;8.38;;;2.88;;
30301;SDS011;17111;52.130;5.028;2023-12-29T04:07:19;6.60;;;3.05;;
30301;SDS011;17111;52.130;5.028;2023-12-29T04:09:45;5.85;;;2.90;;
30301;SDS011;17111;52.130;5.028;2023-12-29T04:12:12;6.68;;;3.25;;
30301;SDS011;17111;52.130;5.028;2023-12-29T04:14:39;7.53;;;2.90;;
30301;SDS011;17111;52.130;5.028;2023-12-29T04:17:05;6.20;;;3.08;;
30301;SDS011;17111;52.130;5.028;2023-12-29T04:19:40;12.63;;;3.33;;
30301;SDS011;17111;52.130;5.028;2023-12-29T04:22:07;6.18;;;3.08;;
30301;SDS011;17111;52.130;5.028;2023-12-29T04:24:34;5.75;;;2.72;;
30301;SDS011;17111;52.130;5.028;2023-12-29T04:27:04;6.28;;;3.00;;
30301;SDS011;17111;52.130;5.028;2023-12-29T04:29:31;6.57;;;2.72;;
30301;SDS011;17111;52.130;5.028;2023-12-29T04:31:57;6.85;;;3.00;;
30301;SDS011;17111;52.130;5.028;2023-12-29T04:34:24;8.90;;;3.55;;
30301;SDS011;17111;52.130;5.028;2023-12-29T04:36:50;8.63;;;2.92;;
30301;SDS011;17111;52.130;5.028;2023-12-29T04:39:17;5.18;;;2.55;;
30301;SDS011;17111;52.130;5.028;2023-12-29T04:41:44;7.80;;;3.00;;
30301;SDS011;17111;52.130;5.028;2023-12-29T04:44:10;7.65;;;3.08;;
30301;SDS011;17111;52.130;5.028;2023-12-29T04:46:37;11.15;;;3.13;;
30301;SDS011;17111;52.130;5.028;2023-12-29T04:49:04;9.15;;;3.65;;
30301;SDS011;17111;52.130;5.028;2023-12-29T04:51:30;8.50;;;3.20;;
30301;SDS011;17111;52.130;5.028;2023-12-29T04:53:57;9.73;;;3.63;;
30301;SDS011;17111;52.130;5.028;2023-12-29T04:56:23;10.20;;;3.30;;
30301;SDS011;17111;52.130;5.028;2023-12-29T04:58:53;6.85;;;3.05;;
30301;SDS011;17111;52.130;5.028;2023-12-29T05:01:19;8.98;;;2.85;;
30301;SDS011;17111;52.130;5.028;2023-12-29T05:03:46;8.02;;;3.10;;
30301;SDS011;17111;52.130;5.028;2023-12-29T05:06:13;9.40;;;2.75;;
30301;SDS011;17111;52.130;5.028;2023-12-29T05:08:39;8.18;;;2.92;;
30301;SDS011;17111;52.130;5.028;2023-12-29T05:11:06;7.85;;;3.05;;
30301;SDS011;17111;52.130;5.028;2023-12-29T05:13:33;10.05;;;3.00;;
30301;SDS011;17111;52.130;5.028;2023-12-29T05:15:59;7.90;;;3.22;;
30301;SDS011;17111;52.130;5.028;2023-12-29T05:18:26;8.73;;;2.67;;
30301;SDS011;17111;52.130;5.028;2023-12-29T05:20:56;10.23;;;3.28;;
30301;SDS011;17111;52.130;5.028;2023-12-29T05:23:22;8.32;;;2.90;;
30301;SDS011;17111;52.130;5.028;2023-12-29T05:25:49;7.95;;;2.92;;
30301;SDS011;17111;52.130;5.028;2023-12-29T05:28:15;11.25;;;3.10;;
30301;SDS011;17111;52.130;5.028;2023-12-29T05:30:42;11.63;;;3.15;;
30301;SDS011;17111;52.130;5.028;2023-12-29T05:33:09;10.02;;;3.20;;
30301;SDS011;17111;52.130;5.028;2023-12-29T05:35:35;9.82;;;3.72;;
30301;SDS011;17111;52.130;5.028;2023-12-29T05:38:02;8.73;;;3.42;;
30301;SDS011;17111;52.130;5.028;2023-12-29T05:40:29;10.30;;;3.05;;
30301;SDS011;17111;52.130;5.028;2023-12-29T05:42:55;8.80;;;3.00;;
30301;SDS011;17111;52.130;5.028;2023-12-29T05:45:22;9.25;;;2.97;;
30301;SDS011;17111;52.130;5.028;2023-12-29T05:47:49;11.57;;;3.72;;
30301;SDS011;17111;52.130;5.028;2023-12-29T05:50:15;10.10;;;3.03;;
30301;SDS011;17111;52.130;5.028;2023-12-29T05:52:42;9.48;;;3.75;;
30301;SDS011;17111;52.130;5.028;2023-12-29T05:55:09;10.93;;;3.22;;
30301;SDS011;17111;52.130;5.028;2023-12-29T05:57:35;9.35;;;2.78;;
30301;SDS011;17111;52.130;5.028;2023-12-29T06:00:02;8.38;;;2.97;;
30301;SDS011;17111;52.130;5.028;2023-12-29T06:02:29;8.63;;;3.05;;
30301;SDS011;17111;52.130;5.028;2023-12-29T06:04:55;9.73;;;3.22;;
30301;SDS011;17111;52.130;5.028;2023-12-29T06:07:22;10.73;;;3.25;;
30301;SDS011;17111;52.130;5.028;2023-12-29T06:09:49;12.27;;;3.40;;
30301;SDS011;17111;52.130;5.028;2023-12-29T06:12:15;9.75;;;3.13;;
30301;SDS011;17111;52.130;5.028;2023-12-29T06:14:42;12.43;;;3.63;;
30301;SDS011;17111;52.130;5.028;2023-12-29T06:17:08;8.43;;;2.90;;
30301;SDS011;17111;52.130;5.028;2023-12-29T06:19:35;8.80;;;2.97;;
30301;SDS011;17111;52.130;5.028;2023-12-29T06:22:02;10.88;;;3.60;;
30301;SDS011;17111;52.130;5.028;2023-12-29T06:24:29;7.60;;;2.95;;
30301;SDS011;17111;52.130;5.028;2023-12-29T06:26:55;9.68;;;3.03;;
30301;SDS011;17111;52.130;5.028;2023-12-29T06:29:22;9.95;;;3.10;;
30301;SDS011;17111;52.130;5.028;2023-12-29T06:31:48;9.15;;;3.00;;
30301;SDS011;17111;52.130;5.028;2023-12-29T06:34:15;12.38;;;3.58;;
30301;SDS011;17111;52.130;5.028;2023-12-29T06:36:42;7.40;;;2.25;;
30301;SDS011;17111;52.130;5.028;2023-12-29T06:39:09;9.90;;;2.85;;
30301;SDS011;17111;52.130;5.028;2023-12-29T06:41:35;11.35;;;2.40;;
30301;SDS011;17111;52.130;5.028;2023-12-29T06:44:02;8.23;;;2.90;;
30301;SDS011;17111;52.130;5.028;2023-12-29T06:46:29;6.90;;;2.22;;
30301;SDS011;17111;52.130;5.028;2023-12-29T06:48:55;6.35;;;2.45;;
30301;SDS011;17111;52.130;5.028;2023-12-29T06:51:22;8.32;;;2.40;;
30301;SDS011;17111;52.130;5.028;2023-12-29T06:53:49;8.52;;;2.60;;
30301;SDS011;17111;52.130;5.028;2023-12-29T06:56:16;5.65;;;1.98;;
30301;SDS011;17111;52.130;5.028;2023-12-29T06:58:44;7.65;;;3.20;;
30301;SDS011;17111;52.130;5.028;2023-12-29T07:01:11;8.88;;;3.17;;
30301;SDS011;17111;52.130;5.028;2023-12-29T07:03:38;7.93;;;2.50;;
30301;SDS011;17111;52.130;5.028;2023-12-29T07:06:04;11.35;;;3.35;;
30301;SDS011;17111;52.130;5.028;2023-12-29T07:08:32;6.03;;;2.40;;
30301;SDS011;17111;52.130;5.028;2023-12-29T07:10:58;7.28;;;2.28;;
30301;SDS011;17111;52.130;5.028;2023-12-29T07:13:25;7.57;;;2.63;;
30301;SDS011;17111;52.130;5.028;2023-12-29T07:15:51;10.07;;;2.70;;
30301;SDS011;17111;52.130;5.028;2023-12-29T07:18:18;6.60;;;2.40;;
30301;SDS011;17111;52.130;5.028;2023-12-29T07:20:45;6.50;;;2.00;;
30301;SDS011;17111;52.130;5.028;2023-12-29T07:23:12;7.07;;;2.00;;
30301;SDS011;17111;52.130;5.028;2023-12-29T07:25:38;5.07;;;1.83;;
30301;SDS011;17111;52.130;5.028;2023-12-29T07:28:05;4.85;;;2.03;;
30301;SDS011;17111;52.130;5.028;2023-12-29T07:30:32;5.45;;;2.00;;
30301;SDS011;17111;52.130;5.028;2023-12-29T07:32:58;7.20;;;2.15;;
30301;SDS011;17111;52.130;5.028;2023-12-29T07:35:25;3.17;;;1.20;;
30301;SDS011;17111;52.130;5.028;2023-12-29T07:37:52;4.03;;;1.70;;
30301;SDS011;17111;52.130;5.028;2023-12-29T07:40:18;6.15;;;1.75;;
30301;SDS011;17111;52.130;5.028;2023-12-29T07:42:45;8.60;;;2.45;;
30301;SDS011;17111;52.130;5.028;2023-12-29T07:45:15;5.18;;;2.20;;
30301;SDS011;17111;52.130;5.028;2023-12-29T07:47:41;6.25;;;2.42;;
30301;SDS011;17111;52.130;5.028;2023-12-29T07:50:08;4.18;;;1.67;;
30301;SDS011;17111;52.130;5.028;2023-12-29T07:52:35;4.35;;;1.90;;
30301;SDS011;17111;52.130;5.028;2023-12-29T07:55:01;7.63;;;2.50;;
30301;SDS011;17111;52.130;5.028;2023-12-29T07:57:29;7.43;;;2.15;;
30301;SDS011;17111;52.130;5.028;2023-12-29T07:59:55;5.57;;;2.17;;
30301;SDS011;17111;52.130;5.028;2023-12-29T08:02:23;6.22;;;1.80;;
30301;SDS011;17111;52.130;5.028;2023-12-29T08:04:49;4.55;;;2.05;;
30301;SDS011;17111;52.130;5.028;2023-12-29T08:07:16;6.88;;;2.25;;
30301;SDS011;17111;52.130;5.028;2023-12-29T08:09:43;7.07;;;2.42;;
30301;SDS011;17111;52.130;5.028;2023-12-29T08:12:10;5.75;;;2.45;;
30301;SDS011;17111;52.130;5.028;2023-12-29T08:14:37;4.05;;;1.98;;
30301;SDS011;17111;52.130;5.028;2023-12-29T08:17:03;4.70;;;1.83;;
30301;SDS011;17111;52.130;5.028;2023-12-29T08:19:30;5.82;;;1.90;;
30301;SDS011;17111;52.130;5.028;2023-12-29T08:21:57;6.97;;;2.42;;
30301;SDS011;17111;52.130;5.028;2023-12-29T08:24:23;4.82;;;2.35;;
30301;SDS011;17111;52.130;5.028;2023-12-29T08:26:50;4.15;;;1.80;;
30301;SDS011;17111;52.130;5.028;2023-12-29T08:29:16;6.68;;;2.63;;
30301;SDS011;17111;52.130;5.028;2023-12-29T08:31:45;7.25;;;2.60;;
30301;SDS011;17111;52.130;5.028;2023-12-29T08:34:13;6.25;;;2.53;;
30301;SDS011;17111;52.130;5.028;2023-12-29T08:36:40;6.40;;;2.72;;
30301;SDS011;17111;52.130;5.028;2023-12-29T08:39:06;5.85;;;2.53;;
30301;SDS011;17111;52.130;5.028;2023-12-29T08:41:33;7.40;;;2.55;;
30301;SDS011;17111;52.130;5.028;2023-12-29T08:44:00;5.30;;;2.45;;
30301;SDS011;17111;52.130;5.028;2023-12-29T08:46:26;6.68;;;2.78;;
30301;SDS011;17111;52.130;5.028;2023-12-29T08:48:53;6.85;;;2.80;;
30301;SDS011;17111;52.130;5.028;2023-12-29T08:51:20;8.10;;;3.10;;
30301;SDS011;17111;52.130;5.028;2023-12-29T08:53:46;7.18;;;3.10;;
30301;SDS011;17111;52.130;5.028;2023-12-29T08:56:13;6.07;;;2.90;;
30301;SDS011;17111;52.130;5.028;2023-12-29T08:58:40;6.57;;;3.33;;
30301;SDS011;17111;52.130;5.028;2023-12-29T09:01:07;7.70;;;3.88;;
30301;SDS011;17111;52.130;5.028;2023-12-29T09:03:34;6.72;;;3.42;;
30301;SDS011;17111;52.130;5.028;2023-12-29T09:06:01;10.20;;;4.35;;
30301;SDS011;17111;52.130;5.028;2023-12-29T09:08:29;5.68;;;3.05;;
30301;SDS011;17111;52.130;5.028;2023-12-29T09:10:55;8.63;;;4.13;;
30301;SDS011;17111;52.130;5.028;2023-12-29T09:13:22;9.02;;;4.47;;
30301;SDS011;17111;52.130;5.028;2023-12-29T09:15:51;8.00;;;4.10;;
30301;SDS011;17111;52.130;5.028;2023-12-29T09:18:18;11.93;;;5.70;;
30301;SDS011;17111;52.130;5.028;2023-12-29T09:20:44;7.40;;;3.80;;
30301;SDS011;17111;52.130;5.028;2023-12-29T09:23:12;9.68;;;5.40;;
30301;SDS011;17111;52.130;5.028;2023-12-29T09:25:38;12.38;;;5.30;;
30301;SDS011;17111;52.130;5.028;2023-12-29T09:28:06;9.48;;;5.00;;
30301;SDS011;17111;52.130;5.028;2023-12-29T09:30:33;8.70;;;4.72;;
30301;SDS011;17111;52.130;5.028;2023-12-29T09:32:59;10.40;;;5.28;;
30301;SDS011;17111;52.130;5.028;2023-12-29T09:35:26;13.75;;;5.38;;
30301;SDS011;17111;52.130;5.028;2023-12-29T09:37:53;11.48;;;5.32;;
30301;SDS011;17111;52.130;5.028;2023-12-29T09:40:19;8.90;;;4.85;;
30301;SDS011;17111;52.130;5.028;2023-12-29T09:42:46;11.05;;;5.45;;
30301;SDS011;17111;52.130;5.028;2023-12-29T09:45:15;10.55;;;5.07;;
30301;SDS011;17111;52.130;5.028;2023-12-29T09:47:49;9.40;;;5.32;;
30301;SDS011;17111;52.130;5.028;2023-12-29T09:50:19;9.05;;;5.07;;
30301;SDS011;17111;52.130;5.028;2023-12-29T09:52:48;10.82;;;5.40;;
30301;SDS011;17111;52.130;5.028;2023-12-29T09:55:18;9.55;;;4.88;;
30301;SDS011;17111;52.130;5.028;2023-12-29T09:57:46;12.65;;;5.38;;
30301;SDS011;17111;52.130;5.028;2023-12-29T10:00:15;9.68;;;4.97;;
30301;SDS011;17111;52.130;5.028;2023-12-29T10:02:42;8.40;;;4.57;;
30301;SDS011;17111;52.130;5.028;2023-12-29T10:05:10;11.02;;;5.80;;
30301;SDS011;17111;52.130;5.028;2023-12-29T10:07:37;9.07;;;4.65;;
30301;SDS011;17111;52.130;5.028;2023-12-29T10:10:05;8.43;;;4.80;;
30301;SDS011;17111;52.130;5.028;2023-12-29T10:12:33;8.45;;;4.82;;
30301;SDS011;17111;52.130;5.028;2023-12-29T10:15:10;8.38;;;4.70;;
30301;SDS011;17111;52.130;5.028;2023-12-29T10:20:43;10.00;;;4.80;;
30301;SDS011;17111;52.130;5.028;2023-12-29T10:23:13;8.82;;;4.60;;
30301;SDS011;17111;52.130;5.028;2023-12-29T10:25:45;8.77;;;4.82;;
30301;SDS011;17111;52.130;5.028;2023-12-29T10:28:12;9.32;;;5.20;;
30301;SDS011;17111;52.130;5.028;2023-12-29T10:30:39;10.23;;;5.38;;
30301;SDS011;17111;52.130;5.028;2023-12-29T10:33:07;10.50;;;5.10;;
30301;SDS011;17111;52.130;5.028;2023-12-29T10:35:35;8.07;;;4.63;;
30301;SDS011;17111;52.130;5.028;2023-12-29T10:38:10;8.73;;;4.78;;
30301;SDS011;17111;52.130;5.028;2023-12-29T10:40:38;11.82;;;6.25;;
30301;SDS011;17111;52.130;5.028;2023-12-29T10:43:04;11.25;;;5.63;;
30301;SDS011;17111;52.130;5.028;2023-12-29T10:45:33;10.73;;;5.38;;
30301;SDS011;17111;52.130;5.028;2023-12-29T10:48:01;10.65;;;5.28;;
30301;SDS011;17111;52.130;5.028;2023-12-29T10:50:28;8.27;;;5.15;;
30301;SDS011;17111;52.130;5.028;2023-12-29T10:53:10;10.57;;;5.10;;
30301;SDS011;17111;52.130;5.028;2023-12-29T10:55:38;9.15;;;5.13;;
30301;SDS011;17111;52.130;5.028;2023-12-29T10:58:05;11.40;;;5.45;;
30301;SDS011;17111;52.130;5.028;2023-12-29T11:00:32;11.27;;;5.28;;
30301;SDS011;17111;52.130;5.028;2023-12-29T11:02:59;10.88;;;5.72;;
30301;SDS011;17111;52.130;5.028;2023-12-29T11:05:27;12.02;;;5.55;;
30301;SDS011;17111;52.130;5.028;2023-12-29T11:07:54;11.13;;;6.03;;
30301;SDS011;17111;52.130;5.028;2023-12-29T11:10:22;10.15;;;5.70;;
30301;SDS011;17111;52.130;5.028;2023-12-29T11:12:48;11.50;;;6.07;;
30301;SDS011;17111;52.130;5.028;2023-12-29T11:15:15;11.40;;;6.50;;
30301;SDS011;17111;52.130;5.028;2023-12-29T11:17:43;11.98;;;6.32;;
30301;SDS011;17111;52.130;5.028;2023-12-29T11:20:16;12.07;;;7.07;;
30301;SDS011;17111;52.130;5.028;2023-12-29T11:22:43;12.88;;;6.15;;
30301;SDS011;17111;52.130;5.028;2023-12-29T11:25:12;12.38;;;6.75;;
30301;SDS011;17111;52.130;5.028;2023-12-29T11:27:39;14.63;;;7.55;;
30301;SDS011;17111;52.130;5.028;2023-12-29T11:30:07;12.68;;;7.10;;
30301;SDS011;17111;52.130;5.028;2023-12-29T11:35:12;12.02;;;6.35;;
30301;SDS011;17111;52.130;5.028;2023-12-29T11:37:52;13.07;;;6.80;;
30301;SDS011;17111;52.130;5.028;2023-12-29T11:40:57;13.60;;;7.40;;
30301;SDS011;17111;52.130;5.028;2023-12-29T11:43:26;13.18;;;7.53;;
30301;SDS011;17111;52.130;5.028;2023-12-29T11:45:53;14.80;;;7.90;;
30301;SDS011;17111;52.130;5.028;2023-12-29T11:54:21;15.50;;;8.05;;
30301;SDS011;17111;52.130;5.028;2023-12-29T11:56:49;13.95;;;7.32;;
30301;SDS011;17111;52.130;5.028;2023-12-29T12:01:54;13.32;;;7.57;;
30301;SDS011;17111;52.130;5.028;2023-12-29T12:04:36;11.70;;;6.78;;
30301;SDS011;17111;52.130;5.028;2023-12-29T12:07:04;15.32;;;7.55;;
30301;SDS011;17111;52.130;5.028;2023-12-29T12:09:33;15.60;;;7.65;;
30301;SDS011;17111;52.130;5.028;2023-12-29T12:12:02;15.85;;;8.50;;
30301;SDS011;17111;52.130;5.028;2023-12-29T12:17:28;12.88;;;7.50;;
30301;SDS011;17111;52.130;5.028;2023-12-29T12:19:57;17.80;;;8.15;;
30301;SDS011;17111;52.130;5.028;2023-12-29T12:22:35;12.80;;;7.25;;
30301;SDS011;17111;52.130;5.028;2023-12-29T12:25:05;14.32;;;7.78;;
30301;SDS011;17111;52.130;5.028;2023-12-29T12:27:36;11.93;;;7.57;;
30301;SDS011;17111;52.130;5.028;2023-12-29T12:30:05;12.85;;;7.57;;
30301;SDS011;17111;52.130;5.028;2023-12-29T12:32:32;11.60;;;6.97;;
30301;SDS011;17111;52.130;5.028;2023-12-29T12:34:58;14.50;;;7.75;;
30301;SDS011;17111;52.130;5.028;2023-12-29T12:37:26;13.30;;;7.30;;
30301;SDS011;17111;52.130;5.028;2023-12-29T12:39:54;12.38;;;7.05;;
30301;SDS011;17111;52.130;5.028;2023-12-29T12:42:21;12.30;;;6.88;;
30301;SDS011;17111;52.130;5.028;2023-12-29T12:44:55;15.18;;;7.30;;
30301;SDS011;17111;52.130;5.028;2023-12-29T12:47:33;11.68;;;7.00;;
30301;SDS011;17111;52.130;5.028;2023-12-29T12:50:21;13.73;;;7.38;;
30301;SDS011;17111;52.130;5.028;2023-12-29T12:52:48;14.35;;;6.82;;
30301;SDS011;17111;52.130;5.028;2023-12-29T12:55:15;11.55;;;6.85;;
30301;SDS011;17111;52.130;5.028;2023-12-29T12:57:42;12.48;;;7.03;;
30301;SDS011;17111;52.130;5.028;2023-12-29T13:00:09;13.35;;;6.97;;
30301;SDS011;17111;52.130;5.028;2023-12-29T13:02:37;11.98;;;6.85;;
30301;SDS011;17111;52.130;5.028;2023-12-29T13:05:04;12.75;;;7.03;;
30301;SDS011;17111;52.130;5.028;2023-12-29T13:07:34;9.02;;;6.28;;
30301;SDS011;17111;52.130;5.028;2023-12-29T13:10:01;10.82;;;6.43;;
30301;SDS011;17111;52.130;5.028;2023-12-29T13:12:30;10.45;;;6.22;;
30301;SDS011;17111;52.130;5.028;2023-12-29T13:15:06;11.52;;;6.50;;
30301;SDS011;17111;52.130;5.028;2023-12-29T13:17:36;13.68;;;6.53;;
30301;SDS011;17111;52.130;5.028;2023-12-29T13:20:03;13.27;;;6.68;;
30301;SDS011;17111;52.130;5.028;2023-12-29T13:22:31;14.57;;;6.38;;
30301;SDS011;17111;52.130;5.028;2023-12-29T13:24:58;13.27;;;6.57;;
30301;SDS011;17111;52.130;5.028;2023-12-29T13:27:25;12.88;;;5.97;;
30301;SDS011;17111;52.130;5.028;2023-12-29T13:29:52;10.98;;;5.88;;
30301;SDS011;17111;52.130;5.028;2023-12-29T13:32:20;9.85;;;5.72;;
30301;SDS011;17111;52.130;5.028;2023-12-29T13:34:55;10.00;;;5.93;;
30301;SDS011;17111;52.130;5.028;2023-12-29T13:37:30;10.20;;;5.32;;
30301;SDS011;17111;52.130;5.028;2023-12-29T13:40:24;10.18;;;6.07;;
30301;SDS011;17111;52.130;5.028;2023-12-29T13:43:10;12.82;;;6.70;;
30301;SDS011;17111;52.130;5.028;2023-12-29T13:45:39;12.30;;;6.00;;
30301;SDS011;17111;52.130;5.028;2023-12-29T13:48:09;9.23;;;5.72;;
30301;SDS011;17111;52.130;5.028;2023-12-29T13:50:37;10.68;;;6.10;;
30301;SDS011;17111;52.130;5.028;2023-12-29T13:53:04;10.40;;;5.20;;
30301;SDS011;17111;52.130;5.028;2023-12-29T13:55:31;9.75;;;5.50;;
30301;SDS011;17111;52.130;5.028;2023-12-29T13:57:58;9.63;;;5.72;;
30301;SDS011;17111;52.130;5.028;2023-12-29T14:00:25;9.68;;;5.47;;
30301;SDS011;17111;52.130;5.028;2023-12-29T14:08:04;11.57;;;5.75;;
30301;SDS011;17111;52.130;5.028;2023-12-29T14:10:36;11.40;;;5.38;;
30301;SDS011;17111;52.130;5.028;2023-12-29T14:13:12;11.57;;;5.50;;
30301;SDS011;17111;52.130;5.028;2023-12-29T14:15:43;12.10;;;5.28;;
30301;SDS011;17111;52.130;5.028;2023-12-29T14:20:47;8.90;;;4.43;;
30301;SDS011;17111;52.130;5.028;2023-12-29T14:23:14;9.52;;;5.20;;
30301;SDS011;17111;52.130;5.028;2023-12-29T14:25:44;10.20;;;4.63;;
30301;SDS011;17111;52.130;5.028;2023-12-29T14:30:44;9.88;;;4.28;;
30301;SDS011;17111;52.130;5.028;2023-12-29T14:33:11;9.00;;;4.57;;
30301;SDS011;17111;52.130;5.028;2023-12-29T14:35:38;10.40;;;5.10;;
30301;SDS011;17111;52.130;5.028;2023-12-29T14:38:04;8.45;;;4.63;;
30301;SDS011;17111;52.130;5.028;2023-12-29T14:40:31;10.70;;;4.50;;
30301;SDS011;17111;52.130;5.028;2023-12-29T14:43:01;10.80;;;4.78;;
30301;SDS011;17111;52.130;5.028;2023-12-29T14:45:28;9.27;;;4.35;;
30301;SDS011;17111;52.130;5.028;2023-12-29T14:47:59;9.75;;;4.50;;
30301;SDS011;17111;52.130;5.028;2023-12-29T14:50:27;9.68;;;3.97;;
30301;SDS011;17111;52.130;5.028;2023-12-29T14:52:54;9.20;;;4.80;;
30301;SDS011;17111;52.130;5.028;2023-12-29T14:55:20;7.70;;;4.05;;
30301;SDS011;17111;52.130;5.028;2023-12-29T14:57:47;6.78;;;4.40;;
30301;SDS011;17111;52.130;5.028;2023-12-29T15:00:14;9.57;;;4.95;;
30301;SDS011;17111;52.130;5.028;2023-12-29T15:02:42;8.18;;;4.32;;
30301;SDS011;17111;52.130;5.028;2023-12-29T15:05:09;9.82;;;4.13;;
30301;SDS011;17111;52.130;5.028;2023-12-29T15:07:36;8.95;;;4.50;;
30301;SDS011;17111;52.130;5.028;2023-12-29T15:10:02;7.50;;;3.80;;
30301;SDS011;17111;52.130;5.028;2023-12-29T15:12:29;6.53;;;3.90;;
30301;SDS011;17111;52.130;5.028;2023-12-29T15:14:57;7.32;;;3.95;;
30301;SDS011;17111;52.130;5.028;2023-12-29T15:17:24;7.07;;;4.03;;